createdAt,value
2019-01-20T00:03:03.362Z,4.93
2019-01-20T00:06:06.453Z,5.00
2019-01-20T00:09:11.318Z,5.93
2019-01-20T00:12:14.271Z,5.13
2019-01-20T00:15:17.176Z,5.30
2019-01-20T00:18:21.041Z,5.20
2019-01-20T00:21:24.134Z,6.30
2019-01-20T00:24:27.027Z,5.20
2019-01-20T00:27:29.751Z,5.50
2019-01-20T00:30:32.898Z,5.27
2019-01-20T00:33:36.853Z,5.17
2019-01-20T00:36:39.954Z,7.47
2019-01-20T00:39:42.718Z,5.67
2019-01-20T00:42:45.471Z,6.83
2019-01-20T00:45:48.205Z,5.70
2019-01-20T00:48:51.045Z,5.90
2019-01-20T00:51:53.902Z,6.30
2019-01-20T00:54:56.961Z,6.47
2019-01-20T00:58:00.175Z,5.67
2019-01-20T01:01:03.943Z,6.53
2019-01-20T01:04:06.801Z,6.37
2019-01-20T01:07:09.710Z,6.40
2019-01-20T01:10:12.772Z,6.57
2019-01-20T01:13:15.468Z,7.03
2019-01-20T01:16:18.108Z,7.23
2019-01-20T01:19:20.778Z,7.53
2019-01-20T01:22:23.479Z,7.57
2019-01-20T01:25:26.156Z,6.93
2019-01-20T01:28:31.688Z,8.47
2019-01-20T01:31:34.371Z,9.17
2019-01-20T01:34:37.154Z,8.53
2019-01-20T01:37:39.760Z,6.53
2019-01-20T01:40:42.367Z,7.60
2019-01-20T01:43:44.942Z,7.27
2019-01-20T01:46:49.260Z,4.13
2019-01-20T01:49:54.777Z,5.53
2019-01-20T01:52:57.405Z,6.63
2019-01-20T01:56:00.429Z,6.53
2019-01-20T01:59:04.351Z,5.87
2019-01-20T02:02:07.124Z,5.43
2019-01-20T02:05:09.835Z,5.37
2019-01-20T02:08:12.569Z,4.97
2019-01-20T02:11:15.348Z,3.70
2019-01-20T02:14:18.060Z,4.17
2019-01-20T02:17:20.771Z,4.03
2019-01-20T02:20:24.182Z,4.80
2019-01-20T02:23:27.117Z,3.43
2019-01-20T02:26:29.916Z,5.10
2019-01-20T02:29:32.636Z,2.70
2019-01-20T02:32:35.324Z,2.43
2019-01-20T02:35:38.010Z,3.67
2019-01-20T02:38:40.662Z,1.90
2019-01-20T02:41:46.139Z,2.00
2019-01-20T02:44:48.917Z,2.20
2019-01-20T02:48:16.243Z,1.40
2019-01-20T02:51:19.052Z,3.87
2019-01-20T02:54:21.836Z,1.87
2019-01-20T02:57:24.364Z,1.80
2019-01-20T03:00:29.214Z,1.93
2019-01-20T03:03:31.953Z,3.27
2019-01-20T03:06:34.883Z,1.70
2019-01-20T03:09:37.498Z,2.43
2019-01-20T03:12:40.252Z,2.53
2019-01-20T03:15:42.934Z,1.80
2019-01-20T03:18:45.678Z,1.50
2019-01-20T03:21:48.741Z,1.50
2019-01-20T03:24:51.588Z,1.97
2019-01-20T03:27:55.034Z,1.80
2019-01-20T03:30:57.757Z,2.97
2019-01-20T03:34:00.509Z,1.80
2019-01-20T03:37:03.306Z,1.67
2019-01-20T03:40:07.635Z,1.93
2019-01-20T03:43:10.328Z,1.77
2019-01-20T03:46:13.055Z,2.20
2019-01-20T03:49:15.804Z,2.07
2019-01-20T03:52:18.482Z,2.30
2019-01-20T03:55:21.312Z,1.70
2019-01-20T03:58:23.968Z,2.20
2019-01-20T04:01:27.665Z,2.33
2019-01-20T04:04:30.306Z,1.93
2019-01-20T04:07:32.890Z,2.00
2019-01-20T04:10:35.589Z,2.23
2019-01-20T04:13:38.358Z,2.40
2019-01-20T04:16:40.892Z,1.60
2019-01-20T04:19:43.785Z,1.77
2019-01-20T04:22:46.477Z,1.60
2019-01-20T04:25:49.073Z,1.43
2019-01-20T04:28:51.706Z,2.13
2019-01-20T04:31:54.373Z,1.30
2019-01-20T04:34:56.984Z,2.47
2019-01-20T04:37:59.699Z,1.10
2019-01-20T04:41:02.404Z,1.43
2019-01-20T04:44:05.264Z,1.90
2019-01-20T04:47:07.974Z,2.10
2019-01-20T04:50:15.619Z,2.10
2019-01-20T04:53:18.283Z,1.50
2019-01-20T04:56:21.005Z,1.60
2019-01-20T04:59:23.710Z,1.60
2019-01-20T05:02:27.698Z,1.60
2019-01-20T05:05:30.297Z,1.60
2019-01-20T05:08:32.895Z,2.20
2019-01-20T05:11:35.566Z,2.10
2019-01-20T05:14:38.311Z,2.17
2019-01-20T05:17:41.155Z,2.00
2019-01-20T05:20:44.038Z,1.77
2019-01-20T05:23:47.045Z,1.67
2019-01-20T05:26:49.827Z,1.70
2019-01-20T05:29:52.529Z,1.77
2019-01-20T05:32:56.165Z,1.87
2019-01-20T05:35:58.886Z,1.93
2019-01-20T05:39:01.638Z,1.90
2019-01-20T05:42:05.551Z,1.97
2019-01-20T05:45:11.318Z,2.20
2019-01-20T05:48:14.165Z,2.83
2019-01-20T05:51:16.915Z,1.93
2019-01-20T05:54:19.679Z,2.20
2019-01-20T05:57:22.441Z,2.47
2019-01-20T06:00:30.007Z,2.10
2019-01-20T06:03:32.956Z,2.33
2019-01-20T06:06:45.676Z,2.63
2019-01-20T06:09:48.459Z,1.83
2019-01-20T06:12:54.188Z,3.03
2019-01-20T06:16:07.493Z,3.03
2019-01-20T06:19:11.360Z,3.60
2019-01-20T06:22:14.342Z,4.13
2019-01-20T06:25:17.139Z,3.10
2019-01-20T06:28:20.075Z,2.93
2019-01-20T06:31:22.828Z,3.77
2019-01-20T06:34:25.584Z,3.80
2019-01-20T06:37:28.406Z,3.83
2019-01-20T06:40:31.167Z,4.63
2019-01-20T06:43:33.865Z,2.93
2019-01-20T06:46:36.542Z,3.47
2019-01-20T06:49:39.300Z,3.47
2019-01-20T06:52:41.964Z,2.93
2019-01-20T06:55:44.668Z,3.27
2019-01-20T06:58:47.325Z,3.30
2019-01-20T07:01:50.059Z,3.57
2019-01-20T07:04:52.953Z,3.10
2019-01-20T07:07:55.781Z,2.50
2019-01-20T07:10:58.417Z,2.90
2019-01-20T07:14:01.238Z,3.83
2019-01-20T07:17:04.112Z,2.73
2019-01-20T07:20:08.668Z,3.00
2019-01-20T07:23:11.315Z,3.37
2019-01-20T07:26:13.935Z,2.40
2019-01-20T07:29:16.776Z,2.40
2019-01-20T07:32:19.507Z,5.03
2019-01-20T07:35:22.111Z,4.83
2019-01-20T07:38:24.878Z,3.00
2019-01-20T07:41:27.546Z,2.87
2019-01-20T07:44:30.331Z,2.60
2019-01-20T07:47:33.012Z,2.97
2019-01-20T07:50:37.182Z,3.00
2019-01-20T07:53:43.344Z,2.90
2019-01-20T07:56:48.730Z,2.83
2019-01-20T07:59:51.504Z,4.50
2019-01-20T08:02:54.201Z,5.30
2019-01-20T08:05:57.219Z,4.70
2019-01-20T08:08:59.934Z,3.40
2019-01-20T08:12:02.784Z,3.77
2019-01-20T08:15:06.836Z,3.50
2019-01-20T08:18:09.561Z,3.43
2019-01-20T08:21:12.335Z,3.47
2019-01-20T08:24:15.162Z,3.73
2019-01-20T08:27:17.966Z,3.47
2019-01-20T08:30:23.250Z,4.17
2019-01-20T08:33:26.315Z,3.30
2019-01-20T08:36:29.095Z,3.77
2019-01-20T08:39:31.988Z,3.57
2019-01-20T08:42:34.799Z,3.67
2019-01-20T08:45:54.754Z,5.20
2019-01-20T08:48:57.595Z,5.57
2019-01-20T08:52:00.411Z,4.73
2019-01-20T08:55:03.454Z,6.33
2019-01-20T08:58:06.199Z,6.30
2019-01-20T09:01:09.176Z,6.47
2019-01-20T09:04:11.851Z,7.33
2019-01-20T09:07:14.543Z,7.67
2019-01-20T09:10:25.173Z,6.17
2019-01-20T09:13:28.127Z,9.07
2019-01-20T09:16:30.841Z,7.57
2019-01-20T09:19:33.521Z,12.87
2019-01-20T09:22:36.307Z,10.40
2019-01-20T09:25:39.022Z,5.80
2019-01-20T09:28:41.813Z,8.40
2019-01-20T09:31:44.532Z,6.30
2019-01-20T09:34:47.239Z,7.37
2019-01-20T09:37:50.019Z,14.13
2019-01-20T09:40:52.803Z,5.90
2019-01-20T09:43:55.497Z,6.40
2019-01-20T09:46:59.321Z,6.53
2019-01-20T09:50:01.983Z,6.10
2019-01-20T09:53:06.036Z,6.20
2019-01-20T09:56:08.681Z,7.97
2019-01-20T09:59:11.397Z,7.77
2019-01-20T10:02:14.075Z,5.23
2019-01-20T10:05:17.197Z,7.47
2019-01-20T10:08:19.830Z,6.40
2019-01-20T10:11:22.652Z,5.70
2019-01-20T10:14:25.293Z,5.83
2019-01-20T10:17:28.647Z,4.70
2019-01-20T10:20:32.003Z,4.80
2019-01-20T10:23:34.910Z,4.17
2019-01-20T10:26:37.945Z,4.00
2019-01-20T10:29:42.426Z,3.97
2019-01-20T10:32:48.021Z,3.80
2019-01-20T10:35:54.330Z,3.37
2019-01-20T10:39:01.697Z,3.60
2019-01-20T10:42:06.357Z,3.03
2019-01-20T10:45:10.714Z,3.17
2019-01-20T10:48:13.494Z,3.40
2019-01-20T10:51:16.458Z,3.17
2019-01-20T10:54:19.219Z,4.07
2019-01-20T10:57:23.190Z,3.93
2019-01-20T11:00:30.271Z,3.80
2019-01-20T11:03:36.000Z,3.30
2019-01-20T11:06:40.928Z,3.00
2019-01-20T11:09:43.535Z,3.43
2019-01-20T11:12:46.231Z,3.17
2019-01-20T11:15:48.855Z,3.13
2019-01-20T11:19:06.059Z,2.87
2019-01-20T11:22:09.609Z,3.00
2019-01-20T11:25:17.201Z,3.80
2019-01-20T11:28:20.233Z,3.20
2019-01-20T11:31:23.269Z,3.20
2019-01-20T11:34:25.926Z,3.13
2019-01-20T11:37:28.542Z,3.20
2019-01-20T11:40:31.668Z,3.20
2019-01-20T11:43:34.449Z,3.27
2019-01-20T11:46:37.113Z,3.83
2019-01-20T11:49:39.836Z,3.47
2019-01-20T11:52:43.555Z,3.27
2019-01-20T11:55:48.927Z,3.90
2019-01-20T11:58:52.591Z,3.73
2019-01-20T12:01:55.360Z,3.63
2019-01-20T12:04:58.466Z,3.70
2019-01-20T12:08:03.975Z,4.00
2019-01-20T12:11:07.805Z,3.80
2019-01-20T12:14:10.367Z,4.27
2019-01-20T12:17:20.584Z,3.70
2019-01-20T12:20:23.716Z,3.23
2019-01-20T12:23:28.516Z,3.67
2019-01-20T12:26:31.108Z,3.90
2019-01-20T12:29:36.408Z,3.97
2019-01-20T12:32:44.131Z,3.73
2019-01-20T12:35:49.177Z,4.40
2019-01-20T12:38:55.163Z,4.53
2019-01-20T12:41:58.294Z,3.87
2019-01-20T12:45:03.808Z,4.90
2019-01-20T12:48:06.447Z,4.57
2019-01-20T12:51:12.392Z,7.50
2019-01-20T12:54:13.787Z,5.53
2019-01-20T12:57:17.654Z,5.77
2019-01-20T13:00:29.308Z,4.63
2019-01-20T13:03:33.051Z,5.43
2019-01-20T13:06:36.129Z,8.80
2019-01-20T13:09:41.116Z,5.63
2019-01-20T13:12:44.352Z,7.67
2019-01-20T13:15:49.245Z,6.17
2019-01-20T13:19:19.097Z,5.43
2019-01-20T13:22:22.948Z,6.03
2019-01-20T13:25:28.348Z,5.97
2019-01-20T13:28:31.198Z,5.63
2019-01-20T13:31:34.969Z,4.87
2019-01-20T13:34:37.902Z,4.60
2019-01-20T13:37:43.341Z,4.10
2019-01-20T13:40:57.882Z,4.23
2019-01-20T13:44:02.816Z,4.27
2019-01-20T13:47:11.589Z,4.40
2019-01-20T13:50:15.774Z,4.03
2019-01-20T13:53:21.452Z,5.00
2019-01-20T13:56:24.380Z,4.33
2019-01-20T13:59:29.115Z,4.70
2019-01-20T14:02:34.850Z,4.13
2019-01-20T14:05:38.081Z,4.53
2019-01-20T14:08:44.339Z,3.33
2019-01-20T14:11:50.149Z,3.63
2019-01-20T14:14:54.034Z,3.47
2019-01-20T14:17:59.576Z,3.60
2019-01-20T14:21:03.856Z,4.27
2019-01-20T14:24:10.922Z,3.50
2019-01-20T14:27:14.120Z,4.00
2019-01-20T14:30:20.409Z,4.47
2019-01-20T14:33:24.415Z,4.20
2019-01-20T14:36:30.166Z,4.67
2019-01-20T14:39:32.664Z,5.40
2019-01-20T14:42:36.663Z,5.20
2019-01-20T14:45:39.296Z,6.47
2019-01-20T14:48:41.840Z,4.27
2019-01-20T14:51:49.346Z,5.57
2019-01-20T14:54:53.470Z,5.60
2019-01-20T14:57:59.106Z,5.23
2019-01-20T15:01:02.923Z,5.63
2019-01-20T15:04:06.807Z,5.07
2019-01-20T15:07:09.488Z,5.47
2019-01-20T15:10:12.073Z,4.97
2019-01-20T15:13:14.838Z,5.23
2019-01-20T15:16:19.252Z,4.87
2019-01-20T15:19:22.679Z,6.03
2019-01-20T15:22:25.534Z,5.87
2019-01-20T15:25:28.792Z,6.23
2019-01-20T15:28:35.921Z,5.33
2019-01-20T15:31:38.758Z,5.50
2019-01-20T15:34:41.441Z,6.13
2019-01-20T15:37:44.253Z,4.83
2019-01-20T15:40:47.229Z,5.27
2019-01-20T15:43:49.932Z,8.68
2019-01-20T15:46:57.030Z,7.73
2019-01-20T15:50:04.718Z,5.97
2019-01-20T15:53:08.335Z,4.60
2019-01-20T15:58:43.381Z,4.37
2019-01-20T16:01:46.288Z,4.63
2019-01-20T16:04:50.170Z,4.50
2019-01-20T16:07:53.022Z,6.50
2019-01-20T16:10:55.757Z,7.60
2019-01-20T16:13:58.625Z,6.30
2019-01-20T16:17:01.290Z,4.50
2019-01-20T16:20:05.187Z,5.17
2019-01-20T16:23:08.087Z,5.47
2019-01-20T16:26:10.801Z,7.03
2019-01-20T16:29:13.471Z,3.83
2019-01-20T16:32:16.106Z,3.80
2019-01-20T16:35:18.812Z,3.67
2019-01-20T16:38:21.578Z,4.07
2019-01-20T16:41:24.270Z,4.07
2019-01-20T16:44:26.970Z,3.33
2019-01-20T16:47:29.697Z,3.70
2019-01-20T16:50:32.346Z,4.53
2019-01-20T16:53:35.056Z,3.70
2019-01-20T16:56:37.653Z,4.40
2019-01-20T16:59:40.376Z,3.83
2019-01-20T17:02:43.070Z,4.43
2019-01-20T17:05:45.740Z,4.53
2019-01-20T17:08:48.401Z,4.50
2019-01-20T17:12:05.048Z,3.87
2019-01-20T17:15:09.732Z,4.77
2019-01-20T17:18:14.025Z,4.40
2019-01-20T17:21:16.871Z,5.07
2019-01-20T17:24:20.600Z,4.70
2019-01-20T17:27:23.539Z,5.37
2019-01-20T17:30:28.614Z,4.63
2019-01-20T17:33:31.408Z,5.93
2019-01-20T17:36:34.340Z,6.10
2019-01-20T17:39:37.042Z,4.50
2019-01-20T17:42:39.650Z,5.37
2019-01-20T17:45:48.450Z,5.73
2019-01-20T17:48:47.807Z,5.30
2019-01-20T17:51:51.622Z,4.83
2019-01-20T17:54:54.337Z,5.90
2019-01-20T17:57:57.112Z,5.03
2019-01-20T18:01:01.590Z,5.43
2019-01-20T18:04:04.697Z,5.03
2019-01-20T18:07:07.345Z,5.50
2019-01-20T18:10:10.620Z,7.47
2019-01-20T18:13:13.261Z,5.13
2019-01-20T18:16:16.290Z,5.23
2019-01-20T18:19:18.957Z,6.07
2019-01-20T18:22:22.676Z,5.63
2019-01-20T18:25:25.402Z,6.00
2019-01-20T18:28:28.174Z,5.90
2019-01-20T18:31:30.819Z,6.70
2019-01-20T18:34:33.495Z,6.13
2019-01-20T18:37:36.162Z,6.03
2019-01-20T18:40:38.737Z,5.43
2019-01-20T18:43:41.512Z,5.20
2019-01-20T18:46:44.176Z,7.33
2019-01-20T18:49:46.898Z,5.47
2019-01-20T18:52:49.601Z,5.60
2019-01-20T18:55:52.470Z,5.60
2019-01-20T18:58:55.155Z,5.20
2019-01-20T19:02:01.132Z,5.43
2019-01-20T19:05:06.156Z,5.50
2019-01-20T19:08:08.722Z,5.30
2019-01-20T19:11:11.400Z,5.50
2019-01-20T19:14:14.181Z,5.77
2019-01-20T19:17:16.907Z,5.13
2019-01-20T19:20:21.024Z,5.23
2019-01-20T19:23:23.744Z,5.13
2019-01-20T19:26:27.330Z,5.77
2019-01-20T19:29:29.954Z,5.70
2019-01-20T19:32:32.725Z,5.10
2019-01-20T19:35:35.442Z,5.63
2019-01-20T19:38:38.171Z,5.70
2019-01-20T19:41:40.867Z,4.70
2019-01-20T19:44:43.719Z,5.93
2019-01-20T19:47:46.606Z,4.83
2019-01-20T19:50:49.210Z,5.60
2019-01-20T19:53:51.992Z,5.80
2019-01-20T19:56:54.764Z,5.87
2019-01-20T19:59:57.463Z,5.47
2019-01-20T20:03:00.170Z,6.43
2019-01-20T20:06:03.109Z,5.60
2019-01-20T20:52:00.769Z,3.67
